Time;durP1;ratioP1;P1;durP2;ratioP2;P2;SDS_P1;SDS_P2;PMS_P1;PMS_P2;Temp;Humidity;BMP_temperature;BMP_pressure;BME280_temperature;BME280_humidity;BME280_pressure;Samples;Min_cycle;Max_cycle;Signal;HPM_P1;HPM_P2
2024/01/07 00:02:14;;;;;;;19.33;6.63;;;;;;;;;;5041320;28;20486;-77
2024/01/07 00:04:41;;;;;;;10.27;6.50;;;;;;;;;;5026678;28;20033;-79
2024/01/07 00:07:07;;;;;;;9.63;6.70;;;;;;;;;;5030493;28;20054;-80
2024/01/07 00:09:33;;;;;;;8.40;5.57;;;;;;;;;;5016995;28;20045;-80
2024/01/07 00:11:59;;;;;;;12.52;6.22;;;;;;;;;;5010466;28;20030;-78
2024/01/07 00:14:25;;;;;;;8.23;6.00;;;;;;;;;;5011087;28;20068;-77
2024/01/07 00:16:51;;;;;;;8.82;5.90;;;;;;;;;;5015835;28;20043;-77
2024/01/07 00:19:17;;;;;;;11.20;6.43;;;;;;;;;;5010641;28;20064;-79
2024/01/07 00:21:43;;;;;;;11.30;6.22;;;;;;;;;;5019815;28;20037;-77
2024/01/07 00:24:09;;;;;;;9.40;6.57;;;;;;;;;;5018792;28;20026;-80
2024/01/07 00:26:35;;;;;;;13.35;7.32;;;;;;;;;;5022487;28;20041;-78
2024/01/07 00:29:01;;;;;;;19.30;8.00;;;;;;;;;;5030128;28;20079;-78
2024/01/07 00:31:27;;;;;;;9.98;7.00;;;;;;;;;;5019387;28;20029;-77
2024/01/07 00:33:53;;;;;;;15.60;6.93;;;;;;;;;;5010446;28;20052;-77
2024/01/07 00:36:19;;;;;;;14.10;7.22;;;;;;;;;;5014918;28;20066;-78
2024/01/07 00:38:46;;;;;;;10.85;6.90;;;;;;;;;;5017674;28;20034;-78
2024/01/07 00:41:12;;;;;;;9.75;6.82;;;;;;;;;;5018499;28;20086;-78
2024/01/07 00:43:38;;;;;;;13.77;7.32;;;;;;;;;;5030004;28;20053;-78
2024/01/07 00:46:05;;;;;;;12.60;7.45;;;;;;;;;;5016857;28;20100;-77
2024/01/07 00:48:31;;;;;;;12.43;7.38;;;;;;;;;;5009598;28;20026;-77
2024/01/07 00:50:57;;;;;;;12.07;7.45;;;;;;;;;;5009179;28;20487;-78
2024/01/07 00:53:23;;;;;;;10.85;8.07;;;;;;;;;;4994662;28;20026;-78
2024/01/07 00:55:49;;;;;;;13.00;8.02;;;;;;;;;;5022457;28;20133;-77
2024/01/07 00:58:15;;;;;;;14.00;9.52;;;;;;;;;;5029990;28;20033;-77
2024/01/07 01:00:41;;;;;;;11.52;8.27;;;;;;;;;;5034048;28;20053;-77
2024/01/07 01:03:07;;;;;;;12.75;8.20;;;;;;;;;;5017050;28;20037;-79
2024/01/07 01:05:33;;;;;;;12.60;8.43;;;;;;;;;;5025725;28;20193;-78
2024/01/07 01:07:59;;;;;;;13.13;8.38;;;;;;;;;;5013391;28;20591;-78
2024/01/07 01:10:25;;;;;;;13.57;7.50;;;;;;;;;;5012259;28;20105;-77
2024/01/07 01:12:54;;;;;;;11.57;7.47;;;;;;;;;;5023175;28;20116;-77
2024/01/07 01:15:20;;;;;;;10.25;7.45;;;;;;;;;;5015817;28;20034;-78
2024/01/07 01:17:46;;;;;;;9.10;6.70;;;;;;;;;;5024420;28;20348;-77
2024/01/07 01:20:12;;;;;;;10.93;6.90;;;;;;;;;;5029049;28;20052;-77
2024/01/07 01:22:38;;;;;;;11.68;7.05;;;;;;;;;;5021718;28;20022;-77
2024/01/07 01:25:04;;;;;;;14.27;6.72;;;;;;;;;;5009694;28;20092;-77
2024/01/07 01:27:30;;;;;;;9.82;6.55;;;;;;;;;;5014595;28;20065;-77
2024/01/07 01:29:56;;;;;;;11.80;6.70;;;;;;;;;;5009728;28;20034;-76
2024/01/07 01:32:22;;;;;;;10.95;6.13;;;;;;;;;;5015293;28;20105;-77
2024/01/07 01:34:48;;;;;;;9.45;6.68;;;;;;;;;;5023218;28;20029;-76
2024/01/07 01:37:14;;;;;;;11.15;6.57;;;;;;;;;;5012802;28;20033;-77
2024/01/07 01:39:41;;;;;;;10.55;7.28;;;;;;;;;;5018720;28;20026;-76
2024/01/07 01:42:07;;;;;;;10.77;7.25;;;;;;;;;;5029410;28;20045;-77
2024/01/07 01:44:34;;;;;;;12.30;6.90;;;;;;;;;;5015010;28;20589;-78
2024/01/07 01:47:00;;;;;;;11.60;6.47;;;;;;;;;;5021938;28;20084;-76
2024/01/07 01:49:27;;;;;;;11.27;6.45;;;;;;;;;;5012256;28;20072;-78
2024/01/07 01:51:53;;;;;;;10.02;6.93;;;;;;;;;;5000997;28;20064;-77
2024/01/07 01:54:20;;;;;;;12.90;8.02;;;;;;;;;;5017205;28;20061;-77
2024/01/07 01:56:47;;;;;;;9.55;6.85;;;;;;;;;;5009281;28;20073;-76
2024/01/07 01:59:13;;;;;;;10.80;7.10;;;;;;;;;;5029800;28;20060;-76
2024/01/07 02:01:39;;;;;;;9.98;7.10;;;;;;;;;;5024291;28;20406;-76
2024/01/07 02:04:05;;;;;;;10.57;6.80;;;;;;;;;;5012434;28;20030;-77
2024/01/07 02:06:32;;;;;;;8.80;6.30;;;;;;;;;;5029347;28;20467;-77
2024/01/07 02:08:58;;;;;;;10.02;6.68;;;;;;;;;;5024621;28;20026;-77
2024/01/07 02:11:24;;;;;;;9.13;5.97;;;;;;;;;;5013718;28;20087;-80
2024/01/07 02:13:50;;;;;;;11.05;6.97;;;;;;;;;;5012319;28;20057;-77
2024/01/07 02:16:16;;;;;;;10.85;7.03;;;;;;;;;;5022338;28;20708;-75
2024/01/07 02:18:43;;;;;;;15.88;6.78;;;;;;;;;;5029846;28;20056;-76
2024/01/07 02:21:10;;;;;;;9.75;6.50;;;;;;;;;;5014929;28;20030;-77
2024/01/07 02:23:36;;;;;;;10.88;6.20;;;;;;;;;;5026978;28;20029;-76
2024/01/07 02:26:02;;;;;;;8.73;5.93;;;;;;;;;;5033855;28;20476;-77
2024/01/07 02:28:28;;;;;;;8.18;5.40;;;;;;;;;;5012753;28;20030;-78
2024/01/07 02:30:54;;;;;;;9.57;5.80;;;;;;;;;;5020336;28;20168;-77
2024/01/07 02:33:20;;;;;;;8.90;5.93;;;;;;;;;;5029990;28;20030;-79
2024/01/07 02:35:46;;;;;;;9.48;5.82;;;;;;;;;;5024281;28;20484;-77
2024/01/07 02:38:12;;;;;;;9.45;5.55;;;;;;;;;;5011564;28;20054;-77
2024/01/07 02:40:38;;;;;;;9.57;5.50;;;;;;;;;;5019215;28;20044;-78
2024/01/07 02:43:04;;;;;;;10.70;5.90;;;;;;;;;;5012011;28;20475;-78
2024/01/07 02:45:30;;;;;;;5.32;4.18;;;;;;;;;;5019605;28;20100;-77
2024/01/07 02:47:56;;;;;;;7.13;5.03;;;;;;;;;;5018538;28;20026;-77
2024/01/07 02:50:23;;;;;;;7.15;4.85;;;;;;;;;;5022138;28;20021;-77
2024/01/07 02:52:49;;;;;;;6.32;4.30;;;;;;;;;;5012032;28;20034;-77
2024/01/07 02:55:15;;;;;;;7.47;4.00;;;;;;;;;;5020533;28;20043;-76
2024/01/07 02:57:41;;;;;;;10.43;4.63;;;;;;;;;;5027243;28;20030;-76
2024/01/07 03:00:07;;;;;;;7.82;4.20;;;;;;;;;;5027828;28;20076;-75
2024/01/07 03:02:33;;;;;;;7.80;4.53;;;;;;;;;;5041271;28;20508;-77
2024/01/07 03:05:00;;;;;;;7.00;4.30;;;;;;;;;;5018232;28;20022;-78
2024/01/07 03:07:26;;;;;;;7.28;4.55;;;;;;;;;;5017094;28;20046;-76
2024/01/07 03:09:52;;;;;;;8.30;4.85;;;;;;;;;;5025814;28;20030;-81
2024/01/07 03:12:18;;;;;;;8.55;4.65;;;;;;;;;;5019304;28;20172;-77
2024/01/07 03:14:44;;;;;;;8.73;4.75;;;;;;;;;;5026396;28;20635;-78
2024/01/07 03:17:11;;;;;;;7.57;4.55;;;;;;;;;;5019638;28;20038;-78
2024/01/07 03:19:40;;;;;;;8.55;4.65;;;;;;;;;;5016063;28;20071;-77
2024/01/07 03:22:07;;;;;;;6.80;4.57;;;;;;;;;;5011020;28;20128;-78
2024/01/07 03:24:33;;;;;;;9.73;4.78;;;;;;;;;;5010342;28;20339;-81
2024/01/07 03:26:59;;;;;;;8.05;4.60;;;;;;;;;;5020660;28;20049;-78
2024/01/07 03:29:25;;;;;;;8.88;4.80;;;;;;;;;;5011560;28;20026;-78
2024/01/07 03:31:52;;;;;;;7.07;4.82;;;;;;;;;;5020647;28;20040;-78
2024/01/07 03:34:18;;;;;;;6.25;3.95;;;;;;;;;;5022229;28;20029;-77
2024/01/07 03:36:44;;;;;;;8.00;4.35;;;;;;;;;;5020198;28;20044;-77
2024/01/07 03:39:11;;;;;;;6.90;4.03;;;;;;;;;;5020425;28;20103;-75
2024/01/07 03:41:37;;;;;;;6.82;3.70;;;;;;;;;;5014742;28;20034;-77
2024/01/07 03:44:03;;;;;;;6.13;3.78;;;;;;;;;;5017616;28;20108;-77
2024/01/07 03:46:29;;;;;;;7.25;3.92;;;;;;;;;;5026729;28;20017;-76
2024/01/07 03:48:55;;;;;;;8.38;3.60;;;;;;;;;;5013900;28;20029;-79
2024/01/07 03:51:21;;;;;;;6.20;3.58;;;;;;;;;;5021029;28;20033;-79
2024/01/07 03:53:47;;;;;;;7.75;3.92;;;;;;;;;;5013838;28;20030;-78
2024/01/07 03:56:13;;;;;;;4.82;3.05;;;;;;;;;;5010485;28;20042;-78
2024/01/07 03:58:39;;;;;;;5.60;3.35;;;;;;;;;;5024635;28;20110;-78
2024/01/07 04:01:05;;;;;;;5.28;2.70;;;;;;;;;;5020418;28;20033;-78
2024/01/07 04:03:31;;;;;;;5.75;3.38;;;;;;;;;;5010284;28;20026;-77
2024/01/07 04:05:57;;;;;;;8.40;3.78;;;;;;;;;;5027096;28;20060;-76
2024/01/07 04:08:23;;;;;;;7.20;3.75;;;;;;;;;;5010329;28;20033;-78
2024/01/07 04:10:50;;;;;;;7.00;3.25;;;;;;;;;;5010949;28;20018;-78
2024/01/07 04:13:16;;;;;;;5.70;3.22;;;;;;;;;;5011458;28;20026;-79
2024/01/07 04:15:42;;;;;;;5.70;3.08;;;;;;;;;;5024590;28;20033;-78
2024/01/07 04:18:08;;;;;;;3.80;3.10;;;;;;;;;;5029615;28;20033;-76
2024/01/07 04:20:34;;;;;;;5.13;3.22;;;;;;;;;;5032224;28;20919;-77
2024/01/07 04:23:00;;;;;;;6.85;2.75;;;;;;;;;;5015235;28;20736;-76
2024/01/07 04:25:26;;;;;;;3.67;2.78;;;;;;;;;;5010662;28;20048;-77
2024/01/07 04:27:52;;;;;;;8.50;2.78;;;;;;;;;;5009715;28;20037;-76
2024/01/07 04:30:18;;;;;;;8.13;2.97;;;;;;;;;;5011481;28;20468;-77
2024/01/07 04:32:44;;;;;;;5.05;2.70;;;;;;;;;;5013689;28;20044;-77
2024/01/07 04:35:10;;;;;;;5.85;3.30;;;;;;;;;;5030957;28;20459;-78
2024/01/07 04:37:38;;;;;;;9.02;3.45;;;;;;;;;;5024817;28;20037;-77
2024/01/07 04:40:04;;;;;;;4.47;2.58;;;;;;;;;;5017701;28;20029;-77
2024/01/07 04:42:30;;;;;;;5.47;3.47;;;;;;;;;;5029670;28;20587;-77
2024/01/07 04:44:57;;;;;;;6.38;3.05;;;;;;;;;;5014446;28;20037;-77
2024/01/07 04:47:31;;;;;;;7.43;2.78;;;;;;;;;;5026058;28;20038;-79
2024/01/07 04:49:57;;;;;;;4.43;2.20;;;;;;;;;;5011343;28;20472;-78
2024/01/07 04:52:24;;;;;;;7.15;2.60;;;;;;;;;;5021191;28;20821;-78
2024/01/07 04:54:53;;;;;;;3.55;2.22;;;;;;;;;;5023918;28;20494;-77
2024/01/07 04:57:19;;;;;;;2.92;1.80;;;;;;;;;;5029700;28;20107;-78
2024/01/07 04:59:46;;;;;;;5.30;2.30;;;;;;;;;;5021411;28;20471;-78
2024/01/07 05:02:12;;;;;;;3.13;1.80;;;;;;;;;;5013427;28;20030;-81
2024/01/07 05:04:38;;;;;;;4.18;2.00;;;;;;;;;;5016496;28;20384;-78
2024/01/07 05:07:04;;;;;;;7.47;2.17;;;;;;;;;;5026606;28;20404;-78
2024/01/07 05:09:31;;;;;;;5.22;2.20;;;;;;;;;;5024642;28;20049;-78
2024/01/07 05:11:57;;;;;;;5.68;2.13;;;;;;;;;;5012322;28;20088;-77
2024/01/07 05:14:23;;;;;;;4.45;2.17;;;;;;;;;;5026968;28;20419;-82
2024/01/07 05:16:50;;;;;;;4.38;1.70;;;;;;;;;;5021930;28;20042;-78
2024/01/07 05:19:16;;;;;;;4.18;1.98;;;;;;;;;;5029403;28;20040;-77
2024/01/07 05:21:42;;;;;;;1.48;1.17;;;;;;;;;;5010707;28;20022;-82
2024/01/07 05:24:08;;;;;;;4.97;1.70;;;;;;;;;;5026651;28;20502;-77
2024/01/07 05:26:44;;;;;;;2.88;1.75;;;;;;;;;;5020052;28;20048;-78
2024/01/07 05:29:11;;;;;;;2.85;1.75;;;;;;;;;;5024528;28;20049;-77
2024/01/07 05:31:37;;;;;;;5.40;2.10;;;;;;;;;;5019251;28;20021;-77
2024/01/07 05:34:03;;;;;;;3.58;1.92;;;;;;;;;;5027631;28;20091;-77
2024/01/07 05:36:29;;;;;;;4.63;1.90;;;;;;;;;;5029348;28;20462;-78
2024/01/07 05:38:56;;;;;;;6.00;1.70;;;;;;;;;;5016538;28;20018;-79
2024/01/07 05:41:22;;;;;;;3.42;1.70;;;;;;;;;;5015621;28;20030;-77
2024/01/07 05:43:48;;;;;;;3.35;1.80;;;;;;;;;;5048777;28;20113;-78
2024/01/07 05:46:14;;;;;;;4.82;2.28;;;;;;;;;;5028338;28;20045;-77
2024/01/07 05:48:44;;;;;;;4.22;1.88;;;;;;;;;;5016267;28;20057;-77
2024/01/07 05:51:10;;;;;;;6.10;3.17;;;;;;;;;;5018341;28;20098;-79
2024/01/07 05:53:36;;;;;;;4.75;1.70;;;;;;;;;;5012790;28;20113;-79
2024/01/07 05:56:02;;;;;;;3.63;1.90;;;;;;;;;;5019852;28;20077;-76
2024/01/07 05:58:29;;;;;;;2.17;1.50;;;;;;;;;;5012460;28;20057;-77
2024/01/07 06:00:55;;;;;;;2.63;1.50;;;;;;;;;;5032049;28;20113;-78
2024/01/07 06:03:21;;;;;;;4.88;1.75;;;;;;;;;;5020652;28;20034;-78
2024/01/07 06:05:47;;;;;;;2.42;1.27;;;;;;;;;;5028061;28;20099;-79
2024/01/07 06:08:13;;;;;;;3.50;1.50;;;;;;;;;;5022203;28;20025;-77
2024/01/07 06:10:39;;;;;;;4.20;1.40;;;;;;;;;;5025816;28;20033;-77
2024/01/07 06:13:05;;;;;;;3.47;1.33;;;;;;;;;;5037450;28;20037;-79
2024/01/07 06:15:32;;;;;;;2.97;1.23;;;;;;;;;;5026544;28;20179;-79
2024/01/07 06:17:58;;;;;;;4.13;1.30;;;;;;;;;;5027008;28;20069;-81
2024/01/07 06:20:24;;;;;;;4.70;1.58;;;;;;;;;;5017443;28;20025;-76
2024/01/07 06:22:50;;;;;;;3.42;1.70;;;;;;;;;;5011450;28;20081;-76
2024/01/07 06:25:17;;;;;;;2.05;1.25;;;;;;;;;;5014176;28;20065;-77
2024/01/07 06:27:43;;;;;;;4.47;1.10;;;;;;;;;;5031544;28;20025;-76
2024/01/07 06:30:09;;;;;;;3.65;1.80;;;;;;;;;;5020798;28;20100;-77
2024/01/07 06:32:35;;;;;;;7.40;1.77;;;;;;;;;;5012555;28;20018;-77
2024/01/07 06:35:03;;;;;;;3.55;1.23;;;;;;;;;;5023011;28;20033;-76
2024/01/07 06:37:29;;;;;;;3.17;1.42;;;;;;;;;;5019206;28;20056;-80
2024/01/07 06:39:56;;;;;;;3.83;0.93;;;;;;;;;;5014574;28;20447;-77
2024/01/07 06:42:22;;;;;;;3.47;1.10;;;;;;;;;;5023719;28;20029;-76
2024/01/07 06:44:48;;;;;;;5.88;1.50;;;;;;;;;;5031147;28;20056;-77
2024/01/07 06:47:15;;;;;;;1.65;0.98;;;;;;;;;;5027477;28;20033;-77
2024/01/07 06:49:41;;;;;;;3.55;0.90;;;;;;;;;;5014094;28;20045;-78
2024/01/07 06:52:07;;;;;;;4.80;1.00;;;;;;;;;;5031177;28;20026;-77
2024/01/07 06:54:33;;;;;;;2.95;1.17;;;;;;;;;;5028134;28;20025;-76
2024/01/07 06:56:59;;;;;;;1.88;0.88;;;;;;;;;;5012439;28;20041;-76
2024/01/07 06:59:25;;;;;;;1.73;0.90;;;;;;;;;;5031619;28;20116;-78
2024/01/07 07:01:53;;;;;;;2.67;1.10;;;;;;;;;;5029279;28;20025;-77
2024/01/07 07:04:20;;;;;;;4.13;1.30;;;;;;;;;;5019137;28;20030;-80
2024/01/07 07:06:46;;;;;;;2.83;1.33;;;;;;;;;;5026974;28;20449;-77
2024/01/07 07:09:12;;;;;;;1.45;0.98;;;;;;;;;;5018653;28;20463;-76
2024/01/07 07:11:38;;;;;;;2.08;1.27;;;;;;;;;;5046363;28;20057;-77
2024/01/07 07:14:06;;;;;;;1.73;1.00;;;;;;;;;;5031465;28;20103;-78
2024/01/07 07:16:32;;;;;;;3.60;1.77;;;;;;;;;;5029922;28;20021;-78
2024/01/07 07:18:58;;;;;;;2.13;0.90;;;;;;;;;;5017638;28;20030;-77
2024/01/07 07:21:24;;;;;;;5.97;0.95;;;;;;;;;;5024801;28;20033;-77
2024/01/07 07:23:50;;;;;;;1.75;0.85;;;;;;;;;;5018911;28;20037;-78
2024/01/07 07:26:16;;;;;;;2.63;0.88;;;;;;;;;;5029758;28;20036;-77
2024/01/07 07:28:42;;;;;;;3.90;1.00;;;;;;;;;;5019628;28;20091;-79
2024/01/07 07:31:08;;;;;;;2.10;1.00;;;;;;;;;;5019837;28;20080;-78
2024/01/07 07:33:34;;;;;;;1.35;0.88;;;;;;;;;;5028661;28;20033;-77
2024/01/07 07:36:00;;;;;;;1.60;0.95;;;;;;;;;;5032233;28;20523;-77
2024/01/07 07:38:26;;;;;;;19.25;7.63;;;;;;;;;;5040138;28;20522;-78
2024/01/07 07:40:52;;;;;;;11.73;5.57;;;;;;;;;;5025979;28;20353;-75
2024/01/07 07:43:21;;;;;;;2.78;0.93;;;;;;;;;;5025403;28;20093;-77
2024/01/07 07:45:47;;;;;;;4.00;1.00;;;;;;;;;;5022331;28;20041;-83
2024/01/07 07:48:14;;;;;;;3.42;1.15;;;;;;;;;;5021252;28;20017;-79
2024/01/07 07:50:40;;;;;;;2.45;1.00;;;;;;;;;;5012182;28;20117;-77
2024/01/07 07:53:06;;;;;;;4.78;1.30;;;;;;;;;;5009607;28;20029;-83
2024/01/07 07:55:32;;;;;;;4.25;1.83;;;;;;;;;;5024869;28;20145;-79
2024/01/07 07:57:58;;;;;;;3.50;1.08;;;;;;;;;;5008093;28;20048;-80
2024/01/07 08:00:24;;;;;;;1.92;0.75;;;;;;;;;;5014169;28;20053;-79
2024/01/07 08:02:51;;;;;;;5.85;1.00;;;;;;;;;;5030235;28;20046;-77
2024/01/07 08:05:17;;;;;;;1.90;1.00;;;;;;;;;;5015452;28;20038;-79
2024/01/07 08:07:44;;;;;;;3.60;1.35;;;;;;;;;;5015029;28;20041;-78
2024/01/07 08:10:10;;;;;;;2.80;0.82;;;;;;;;;;5008821;28;20053;-78
2024/01/07 08:12:36;;;;;;;5.43;1.00;;;;;;;;;;5026372;28;20053;-79
2024/01/07 08:15:02;;;;;;;1.70;0.80;;;;;;;;;;5013418;28;20527;-78
2024/01/07 08:17:28;;;;;;;2.33;1.00;;;;;;;;;;5016801;28;20388;-76
2024/01/07 08:19:54;;;;;;;2.65;1.00;;;;;;;;;;5012171;28;20034;-79
2024/01/07 08:22:20;;;;;;;3.50;1.30;;;;;;;;;;5018712;28;20064;-81
2024/01/07 08:24:46;;;;;;;4.30;1.10;;;;;;;;;;5011736;28;20030;-80
2024/01/07 08:27:12;;;;;;;3.22;1.30;;;;;;;;;;5013996;28;20507;-74
2024/01/07 08:29:38;;;;;;;1.88;0.80;;;;;;;;;;5008718;28;20029;-79
2024/01/07 08:32:05;;;;;;;1.40;0.77;;;;;;;;;;5018000;28;20228;-75
2024/01/07 08:34:31;;;;;;;1.75;0.95;;;;;;;;;;5009926;28;22599;-75
2024/01/07 08:36:57;;;;;;;2.85;1.00;;;;;;;;;;5013681;28;20545;-74
2024/01/07 08:39:23;;;;;;;3.75;0.98;;;;;;;;;;5010724;28;20054;-77
2024/01/07 08:41:49;;;;;;;2.40;1.00;;;;;;;;;;5008189;28;20029;-74
2024/01/07 08:44:15;;;;;;;2.05;1.25;;;;;;;;;;5009273;28;20577;-78
2024/01/07 08:46:41;;;;;;;3.67;0.90;;;;;;;;;;5010659;28;20509;-76
2024/01/07 08:49:07;;;;;;;2.97;1.00;;;;;;;;;;5011290;28;20530;-78
2024/01/07 08:51:33;;;;;;;2.47;1.10;;;;;;;;;;5028979;28;20029;-78
2024/01/07 08:53:59;;;;;;;3.08;1.30;;;;;;;;;;5010806;28;20099;-75
2024/01/07 08:56:25;;;;;;;3.55;1.17;;;;;;;;;;5019770;28;20038;-79
2024/01/07 08:58:52;;;;;;;4.97;1.70;;;;;;;;;;5026404;28;20197;-77
2024/01/07 09:01:18;;;;;;;2.85;0.90;;;;;;;;;;5015750;28;20029;-77
2024/01/07 09:03:44;;;;;;;4.88;2.33;;;;;;;;;;5011827;28;20030;-78
2024/01/07 09:06:10;;;;;;;2.85;1.63;;;;;;;;;;5021699;28;20044;-78
2024/01/07 09:08:36;;;;;;;5.15;2.55;;;;;;;;;;5018980;28;20025;-79
2024/01/07 09:11:06;;;;;;;5.35;1.83;;;;;;;;;;5018539;28;20057;-77
2024/01/07 09:13:32;;;;;;;3.60;1.80;;;;;;;;;;5010350;28;20388;-80
2024/01/07 09:15:58;;;;;;;2.90;1.63;;;;;;;;;;5013759;28;20029;-77
2024/01/07 09:18:24;;;;;;;6.40;3.05;;;;;;;;;;5011366;28;20105;-78
2024/01/07 09:20:50;;;;;;;7.47;3.78;;;;;;;;;;5013178;28;20092;-77
2024/01/07 09:23:16;;;;;;;3.17;1.85;;;;;;;;;;5037888;28;20040;-78
2024/01/07 09:25:43;;;;;;;3.75;1.48;;;;;;;;;;5024391;28;20037;-78
2024/01/07 09:28:09;;;;;;;4.95;2.40;;;;;;;;;;5014309;28;20038;-79
2024/01/07 09:30:35;;;;;;;3.10;1.70;;;;;;;;;;5012631;28;20083;-80
2024/01/07 09:33:01;;;;;;;6.35;1.27;;;;;;;;;;5029707;28;20104;-78
2024/01/07 09:35:27;;;;;;;2.55;1.10;;;;;;;;;;5009969;28;20026;-76
2024/01/07 09:37:54;;;;;;;3.33;1.45;;;;;;;;;;5008936;28;20082;-81
2024/01/07 09:40:20;;;;;;;1.42;0.90;;;;;;;;;;5027571;28;20038;-82
2024/01/07 09:42:47;;;;;;;3.90;1.00;;;;;;;;;;5011028;28;20514;-83
2024/01/07 09:45:14;;;;;;;3.95;1.50;;;;;;;;;;5011516;28;20030;-83
2024/01/07 09:47:44;;;;;;;2.47;1.20;;;;;;;;;;5027150;28;20042;-78
2024/01/07 09:50:11;;;;;;;3.67;1.20;;;;;;;;;;5011709;28;20746;-76
2024/01/07 09:52:39;;;;;;;1.55;0.80;;;;;;;;;;5023492;28;20068;-78
2024/01/07 09:55:08;;;;;;;5.30;2.65;;;;;;;;;;5027342;28;20045;-77
2024/01/07 09:57:34;;;;;;;6.10;1.52;;;;;;;;;;5013464;28;20042;-80
2024/01/07 10:00:01;;;;;;;1.77;0.73;;;;;;;;;;5015823;28;20037;-76
2024/01/07 10:02:27;;;;;;;3.05;1.95;;;;;;;;;;5012650;28;20032;-77
2024/01/07 10:04:53;;;;;;;4.03;1.00;;;;;;;;;;5008299;28;20033;-77
2024/01/07 10:07:20;;;;;;;3.08;0.80;;;;;;;;;;5010192;28;20525;-76
2024/01/07 10:09:46;;;;;;;1.73;0.80;;;;;;;;;;5013624;28;20061;-78
2024/01/07 10:12:12;;;;;;;5.20;1.73;;;;;;;;;;5013643;28;20026;-78
2024/01/07 10:14:41;;;;;;;2.22;1.15;;;;;;;;;;5010590;28;20033;-77
2024/01/07 10:17:16;;;;;;;2.17;0.82;;;;;;;;;;5011751;28;20063;-78
2024/01/07 10:19:45;;;;;;;0.90;0.77;;;;;;;;;;5009243;28;20087;-77
2024/01/07 10:22:12;;;;;;;1.63;0.80;;;;;;;;;;5010964;28;20032;-76
2024/01/07 10:24:43;;;;;;;2.75;1.00;;;;;;;;;;5013544;28;20361;-76
2024/01/07 10:27:10;;;;;;;2.20;0.77;;;;;;;;;;5014822;28;20030;-77
2024/01/07 10:29:37;;;;;;;2.22;1.05;;;;;;;;;;5014759;28;20467;-76
2024/01/07 10:32:04;;;;;;;3.80;1.33;;;;;;;;;;5021992;28;20372;-77
2024/01/07 10:34:34;;;;;;;1.80;0.85;;;;;;;;;;5017496;28;20056;-77
2024/01/07 10:37:01;;;;;;;5.07;1.65;;;;;;;;;;5017172;28;20030;-78
2024/01/07 10:39:28;;;;;;;1.85;1.02;;;;;;;;;;5013810;28;20033;-78
2024/01/07 10:41:57;;;;;;;3.22;1.05;;;;;;;;;;5016797;28;20022;-77
2024/01/07 10:44:24;;;;;;;2.47;1.08;;;;;;;;;;5011056;28;20113;-77
2024/01/07 10:46:50;;;;;;;1.98;1.00;;;;;;;;;;5017499;28;20145;-79
2024/01/07 10:49:26;;;;;;;7.53;4.15;;;;;;;;;;5017298;28;20032;-79
2024/01/07 10:52:05;;;;;;;3.80;1.17;;;;;;;;;;5016055;28;20033;-77
2024/01/07 10:54:33;;;;;;;4.20;1.20;;;;;;;;;;5016577;28;20026;-78
2024/01/07 10:57:00;;;;;;;2.80;1.00;;;;;;;;;;5015766;28;20119;-78
2024/01/07 10:59:29;;;;;;;2.40;1.10;;;;;;;;;;5013023;28;20065;-76
2024/01/07 11:01:56;;;;;;;3.22;0.93;;;;;;;;;;5014436;28;20034;-77
2024/01/07 11:04:36;;;;;;;2.95;1.95;;;;;;;;;;5012022;28;20112;-77
2024/01/07 11:07:17;;;;;;;2.53;1.20;;;;;;;;;;5016701;28;20045;-77
2024/01/07 11:09:56;;;;;;;7.30;1.58;;;;;;;;;;5013839;28;20382;-77
2024/01/07 11:12:23;;;;;;;3.25;1.20;;;;;;;;;;5013243;28;20086;-77
2024/01/07 11:14:52;;;;;;;2.83;0.70;;;;;;;;;;5012225;28;20030;-78
2024/01/07 11:17:37;;;;;;;3.05;1.63;;;;;;;;;;5017354;28;20041;-77
2024/01/07 11:20:08;;;;;;;1.73;1.23;;;;;;;;;;5016833;28;20037;-77
2024/01/07 11:22:35;;;;;;;3.83;1.20;;;;;;;;;;5020463;28;20092;-77
2024/01/07 11:25:02;;;;;;;4.28;1.10;;;;;;;;;;5023743;28;20095;-77
2024/01/07 11:27:32;;;;;;;4.03;2.17;;;;;;;;;;5019149;28;20043;-76
2024/01/07 11:30:01;;;;;;;2.78;1.20;;;;;;;;;;5021465;28;20029;-76
2024/01/07 11:32:30;;;;;;;2.17;1.00;;;;;;;;;;5019613;28;20057;-76
2024/01/07 11:34:59;;;;;;;1.77;1.17;;;;;;;;;;5021794;28;20034;-77
2024/01/07 11:37:25;;;;;;;1.42;0.98;;;;;;;;;;5017955;28;20043;-76
2024/01/07 11:39:52;;;;;;;2.90;1.33;;;;;;;;;;5011707;28;20042;-78
2024/01/07 11:42:18;;;;;;;3.00;1.50;;;;;;;;;;5015728;28;20025;-76
2024/01/07 11:44:48;;;;;;;3.60;0.98;;;;;;;;;;5016925;28;20971;-81
2024/01/07 11:47:15;;;;;;;4.88;1.95;;;;;;;;;;5008846;28;20040;-81
2024/01/07 11:49:41;;;;;;;2.63;1.05;;;;;;;;;;5012489;28;20277;-81
2024/01/07 11:52:08;;;;;;;5.53;1.38;;;;;;;;;;5009872;28;20075;-79
2024/01/07 11:54:34;;;;;;;3.00;1.10;;;;;;;;;;5014049;28;20033;-77
2024/01/07 11:57:00;;;;;;;3.08;1.25;;;;;;;;;;5011071;28;20041;-76
2024/01/07 11:59:26;;;;;;;2.58;1.10;;;;;;;;;;5008599;28;20026;-78
2024/01/07 12:01:52;;;;;;;1.92;0.85;;;;;;;;;;5019121;28;20430;-77
2024/01/07 12:04:18;;;;;;;11.13;3.80;;;;;;;;;;5016775;28;20025;-76
2024/01/07 12:06:44;;;;;;;15.65;5.20;;;;;;;;;;5025633;28;20053;-80
2024/01/07 12:09:13;;;;;;;2.78;1.10;;;;;;;;;;5036754;28;20042;-78
2024/01/07 12:11:41;;;;;;;1.85;1.17;;;;;;;;;;5028413;28;20146;-77
2024/01/07 12:14:07;;;;;;;1.10;1.00;;;;;;;;;;4993837;28;20033;-77
2024/01/07 12:16:33;;;;;;;4.45;1.52;;;;;;;;;;5026132;28;20049;-78
2024/01/07 12:19:00;;;;;;;4.20;1.23;;;;;;;;;;5019968;28;20037;-76
2024/01/07 12:21:27;;;;;;;3.55;1.20;;;;;;;;;;5020147;28;20546;-77
2024/01/07 12:23:56;;;;;;;2.10;1.30;;;;;;;;;;5018103;28;20025;-76
2024/01/07 12:26:26;;;;;;;4.88;1.70;;;;;;;;;;5019669;28;20037;-76
2024/01/07 12:28:53;;;;;;;2.90;1.60;;;;;;;;;;5010154;28;20037;-76
2024/01/07 12:31:20;;;;;;;12.13;2.15;;;;;;;;;;5021235;28;20018;-76
2024/01/07 12:33:47;;;;;;;3.80;2.03;;;;;;;;;;5033513;28;20163;-77
2024/01/07 12:36:13;;;;;;;4.93;2.05;;;;;;;;;;5025571;28;20037;-77
2024/01/07 12:38:39;;;;;;;3.72;1.95;;;;;;;;;;5023554;28;20025;-77
2024/01/07 12:41:05;;;;;;;2.42;1.63;;;;;;;;;;5016510;28;20157;-77
2024/01/07 12:43:32;;;;;;;3.22;1.40;;;;;;;;;;5026827;28;20065;-77
2024/01/07 12:46:03;;;;;;;7.20;1.92;;;;;;;;;;5020252;28;20110;-76
2024/01/07 12:48:30;;;;;;;5.57;1.70;;;;;;;;;;5025727;28;20037;-77
2024/01/07 12:50:56;;;;;;;4.68;2.17;;;;;;;;;;5026893;28;20116;-76
2024/01/07 12:53:22;;;;;;;2.85;1.83;;;;;;;;;;5009923;28;20026;-77
2024/01/07 12:55:48;;;;;;;5.78;2.13;;;;;;;;;;5009671;28;20037;-77
2024/01/07 12:58:14;;;;;;;3.45;2.00;;;;;;;;;;5010122;28;20383;-78
2024/01/07 13:00:40;;;;;;;3.53;1.95;;;;;;;;;;5017952;28;20112;-78
2024/01/07 13:03:08;;;;;;;6.57;2.20;;;;;;;;;;5029555;28;20032;-78
2024/01/07 13:05:34;;;;;;;5.95;2.15;;;;;;;;;;5026706;28;20482;-78
2024/01/07 13:08:00;;;;;;;4.40;2.22;;;;;;;;;;5028659;28;20030;-76
2024/01/07 13:10:27;;;;;;;4.38;2.45;;;;;;;;;;5017896;28;20053;-77
2024/01/07 13:12:53;;;;;;;5.03;2.05;;;;;;;;;;5009296;28;20029;-77
2024/01/07 13:15:19;;;;;;;3.40;2.38;;;;;;;;;;5015132;28;20635;-78
2024/01/07 13:17:45;;;;;;;6.43;2.10;;;;;;;;;;5025974;28;20049;-77
2024/01/07 13:20:11;;;;;;;4.80;2.70;;;;;;;;;;5010745;28;20053;-77
2024/01/07 13:22:38;;;;;;;4.85;2.92;;;;;;;;;;5017809;28;20038;-77
2024/01/07 13:25:05;;;;;;;7.78;2.90;;;;;;;;;;5009268;28;20036;-77
2024/01/07 13:27:31;;;;;;;4.50;2.08;;;;;;;;;;5026191;28;20041;-77
2024/01/07 13:29:57;;;;;;;6.15;2.78;;;;;;;;;;5024085;28;20388;-77
2024/01/07 13:32:23;;;;;;;7.30;3.15;;;;;;;;;;5016181;28;20486;-76
2024/01/07 13:34:49;;;;;;;7.18;2.08;;;;;;;;;;5009644;28;20213;-76
2024/01/07 13:37:15;;;;;;;4.88;2.40;;;;;;;;;;5012462;28;20049;-77
2024/01/07 13:39:42;;;;;;;4.45;2.13;;;;;;;;;;5017939;28;20104;-77
2024/01/07 13:42:08;;;;;;;5.65;2.65;;;;;;;;;;5018020;28;20033;-77
2024/01/07 13:44:34;;;;;;;3.70;1.85;;;;;;;;;;5015481;28;20033;-78
2024/01/07 13:47:05;;;;;;;7.55;2.67;;;;;;;;;;5017679;28;20037;-77
2024/01/07 13:49:32;;;;;;;4.57;2.33;;;;;;;;;;5027857;28;20128;-77
2024/01/07 13:51:58;;;;;;;5.32;2.33;;;;;;;;;;5026702;28;20099;-77
2024/01/07 13:54:24;;;;;;;4.13;2.22;;;;;;;;;;5018217;28;20100;-78
2024/01/07 13:56:50;;;;;;;9.38;2.22;;;;;;;;;;5021152;28;20041;-76
2024/01/07 13:59:17;;;;;;;6.68;2.22;;;;;;;;;;5030223;28;20183;-76
2024/01/07 14:01:43;;;;;;;7.45;2.50;;;;;;;;;;5026149;28;20025;-76
2024/01/07 14:04:09;;;;;;;5.72;2.13;;;;;;;;;;5029579;28;20032;-76
2024/01/07 14:06:35;;;;;;;8.65;2.70;;;;;;;;;;5012965;28;20061;-77
2024/01/07 14:09:03;;;;;;;5.93;2.65;;;;;;;;;;5027642;28;20034;-77
2024/01/07 14:11:29;;;;;;;9.27;2.65;;;;;;;;;;5019366;28;20045;-77
2024/01/07 14:13:55;;;;;;;8.13;2.25;;;;;;;;;;5032935;28;20103;-77
2024/01/07 14:16:21;;;;;;;6.88;2.42;;;;;;;;;;5026067;28;20041;-77
2024/01/07 14:18:47;;;;;;;5.57;2.00;;;;;;;;;;5012256;28;20698;-76
2024/01/07 14:21:13;;;;;;;5.50;2.75;;;;;;;;;;5012733;28;20022;-76
2024/01/07 14:23:39;;;;;;;4.18;2.60;;;;;;;;;;5012678;28;20037;-77
2024/01/07 14:26:05;;;;;;;8.25;2.75;;;;;;;;;;5012416;28;20041;-77
2024/01/07 14:28:31;;;;;;;5.80;2.78;;;;;;;;;;5030119;28;20044;-78
2024/01/07 14:30:58;;;;;;;6.28;2.60;;;;;;;;;;5020807;28;20036;-79
2024/01/07 14:33:24;;;;;;;9.48;2.97;;;;;;;;;;5018416;28;20026;-78
2024/01/07 14:35:50;;;;;;;4.43;2.10;;;;;;;;;;5015100;28;20115;-77
2024/01/07 14:38:16;;;;;;;3.80;2.30;;;;;;;;;;5018791;28;20033;-77